createdAt,value
2019-04-21T00:00:58.603Z,18.82
2019-04-21T00:03:33.424Z,18.80
2019-04-21T00:06:18.643Z,19.20
2019-04-21T00:08:51.688Z,18.57
2019-04-21T00:11:25.063Z,18.37
2019-04-21T00:13:47.020Z,18.15
2019-04-21T00:16:10.867Z,17.75
2019-04-21T00:19:01.082Z,18.60
2019-04-21T00:21:34.452Z,18.10
2019-04-21T00:24:30.507Z,17.37
2019-04-21T00:27:03.847Z,17.85
2019-04-21T00:29:38.618Z,16.02
2019-04-21T00:32:06.764Z,16.97
2019-04-21T00:34:21.920Z,15.95
2019-04-21T00:37:03.106Z,16.37
2019-04-21T00:42:13.909Z,16.10
2019-04-21T00:44:38.792Z,16.70
2019-04-21T00:47:26.742Z,16.30
2019-04-21T00:49:56.663Z,16.07
2019-04-21T00:52:52.475Z,15.98
2019-04-21T00:55:29.217Z,15.65
2019-04-21T00:58:06.872Z,16.02
2019-04-21T01:00:33.208Z,17.27
2019-04-21T01:03:02.746Z,15.32
2019-04-21T01:05:52.875Z,16.55
2019-04-21T01:08:10.025Z,17.60
2019-04-21T01:10:32.011Z,16.42
2019-04-21T01:13:16.862Z,17.48
2019-04-21T01:15:49.005Z,17.60
2019-04-21T01:18:16.461Z,16.62
2019-04-21T01:20:27.180Z,18.07
2019-04-21T01:22:57.794Z,18.57
2019-04-21T01:25:35.297Z,19.05
2019-04-21T01:28:18.843Z,18.45
2019-04-21T01:30:53.587Z,18.73
2019-04-21T01:33:26.283Z,18.45
2019-04-21T01:35:54.474Z,18.87
2019-04-21T01:38:34.208Z,17.12
2019-04-21T01:41:08.575Z,17.73
2019-04-21T01:43:31.535Z,17.82
2019-04-21T01:46:06.787Z,15.72
2019-04-21T01:48:36.060Z,16.45
2019-04-21T01:51:05.327Z,17.73
2019-04-21T01:53:55.129Z,17.32
2019-04-21T01:56:44.540Z,16.75
2019-04-21T01:59:07.388Z,17.77
2019-04-21T02:01:52.295Z,16.65
2019-04-21T02:04:29.358Z,18.20
2019-04-21T02:06:57.297Z,17.70
2019-04-21T02:09:38.348Z,18.50
2019-04-21T02:12:14.789Z,18.17
2019-04-21T02:14:50.495Z,16.93
2019-04-21T02:17:20.381Z,18.65
2019-04-21T02:19:41.250Z,19.30
2019-04-21T02:22:25.869Z,18.62
2019-04-21T02:24:57.782Z,18.17
2019-04-21T02:27:23.410Z,18.80
2019-04-21T02:30:05.653Z,17.77
2019-04-21T02:32:48.257Z,18.82
2019-04-21T02:37:44.311Z,17.55
2019-04-21T02:40:15.003Z,20.60
2019-04-21T02:43:07.342Z,19.37
2019-04-21T02:45:22.951Z,19.67
2019-04-21T02:47:59.203Z,17.73
2019-04-21T02:50:24.371Z,19.57
2019-04-21T02:53:03.223Z,19.25
2019-04-21T03:03:34.355Z,19.00
2019-04-21T03:06:39.352Z,19.20
2019-04-21T03:08:59.040Z,17.82
2019-04-21T03:11:49.083Z,18.42
2019-04-21T03:14:13.675Z,18.02
2019-04-21T03:16:31.024Z,18.55
2019-04-21T03:19:06.358Z,16.95
2019-04-21T03:21:38.657Z,16.42
2019-04-21T03:24:29.476Z,16.85
2019-04-21T03:26:48.680Z,17.23
2019-04-21T03:29:22.402Z,17.27
2019-04-21T03:42:07.431Z,18.70
2019-04-21T03:44:32.265Z,17.52
2019-04-21T03:49:45.613Z,17.95
2019-04-21T03:52:19.516Z,19.42
2019-04-21T03:54:42.840Z,17.67
2019-04-21T03:57:17.774Z,17.75
2019-04-21T03:59:47.356Z,18.77
2019-04-21T04:02:27.402Z,17.73
2019-04-21T04:05:15.051Z,17.80
2019-04-21T04:08:02.157Z,17.73
2019-04-21T04:10:26.425Z,17.17
2019-04-21T04:12:57.196Z,17.82
2019-04-21T04:15:45.344Z,16.93
2019-04-21T04:18:05.422Z,17.50
2019-04-21T04:20:37.084Z,17.05
2019-04-21T04:23:08.077Z,17.85
2019-04-21T04:25:33.790Z,18.17
2019-04-21T04:28:28.758Z,17.17
2019-04-21T04:30:45.370Z,18.10
2019-04-21T04:33:20.662Z,16.73
2019-04-21T04:38:22.303Z,18.02
2019-04-21T04:41:16.939Z,18.02
2019-04-21T04:43:47.582Z,18.42
2019-04-21T04:46:33.340Z,19.05
2019-04-21T04:51:25.279Z,16.30
2019-04-21T04:53:47.198Z,15.03
2019-04-21T04:56:39.843Z,14.60
2019-04-21T05:01:54.945Z,13.98
2019-04-21T05:06:41.918Z,14.43
2019-04-21T05:09:11.021Z,13.90
2019-04-21T05:24:10.869Z,14.45
2019-04-21T05:26:37.120Z,14.58
2019-04-21T05:29:08.105Z,14.25
2019-04-21T05:32:13.660Z,14.25
2019-04-21T05:34:31.599Z,13.90
2019-04-21T05:37:25.643Z,14.45
2019-04-21T05:39:55.853Z,13.22
2019-04-21T05:42:30.281Z,13.53
2019-04-21T05:45:10.599Z,13.80
2019-04-21T05:48:06.009Z,14.80
2019-04-21T05:50:30.547Z,13.90
2019-04-21T05:52:53.583Z,12.95
2019-04-21T05:55:49.145Z,13.15
2019-04-21T05:58:08.487Z,13.70
2019-04-21T06:00:59.391Z,13.30
2019-04-21T06:03:17.610Z,14.73
2019-04-21T06:06:00.281Z,12.60
2019-04-21T06:08:17.918Z,14.10
2019-04-21T06:10:53.921Z,13.55
2019-04-21T06:13:31.622Z,14.73
2019-04-21T06:15:56.158Z,13.28
2019-04-21T06:18:36.396Z,12.45
2019-04-21T06:21:00.160Z,13.40
2019-04-21T06:23:30.104Z,14.25
2019-04-21T06:28:41.335Z,14.75
2019-04-21T06:31:17.989Z,15.55
2019-04-21T06:33:45.968Z,16.57
2019-04-21T06:39:11.636Z,14.87
2019-04-21T06:41:37.954Z,15.65
2019-04-21T06:44:23.975Z,14.40
2019-04-21T06:46:45.850Z,15.43
2019-04-21T06:49:08.583Z,16.25
2019-04-21T06:51:42.958Z,15.45
2019-04-21T06:54:16.180Z,15.48
2019-04-21T06:57:00.817Z,15.63
2019-04-21T06:59:25.318Z,15.88
2019-04-21T07:01:56.713Z,16.27
2019-04-21T07:06:59.236Z,15.18
2019-04-21T07:09:31.109Z,16.50
2019-04-21T07:11:59.878Z,16.25
2019-04-21T07:14:32.034Z,16.20
2019-04-21T07:17:12.627Z,15.30
2019-04-21T07:19:49.720Z,18.07
2019-04-21T07:22:12.712Z,15.35
2019-04-21T07:24:45.817Z,16.10
2019-04-21T07:27:15.210Z,18.25
2019-04-21T07:29:56.565Z,16.40
2019-04-21T07:32:20.730Z,17.23
2019-04-21T07:34:57.830Z,17.10
2019-04-21T07:37:23.939Z,17.23
2019-04-21T07:39:54.959Z,17.95
2019-04-21T07:42:24.406Z,18.60
2019-04-21T07:44:53.542Z,17.77
2019-04-21T07:47:40.545Z,17.30
2019-04-21T07:50:14.623Z,19.00
2019-04-21T07:53:05.186Z,17.60
2019-04-21T07:57:56.149Z,18.55
2019-04-21T08:00:36.121Z,18.17
2019-04-21T08:03:19.566Z,18.80
2019-04-21T08:05:43.986Z,19.12
2019-04-21T08:08:04.839Z,18.05
2019-04-21T08:10:40.776Z,19.80
2019-04-21T08:13:22.057Z,19.73
2019-04-21T08:15:45.873Z,18.90
2019-04-21T08:18:21.085Z,18.62
2019-04-21T08:20:50.734Z,19.50
2019-04-21T08:23:25.652Z,19.70
2019-04-21T08:26:03.782Z,20.37
2019-04-21T08:28:26.260Z,19.55
2019-04-21T08:31:01.622Z,20.02
2019-04-21T08:38:35.876Z,21.50
2019-04-21T08:41:08.052Z,21.17
2019-04-21T08:43:40.877Z,22.45
2019-04-21T08:46:16.105Z,20.72
2019-04-21T08:48:48.023Z,20.82
2019-04-21T08:51:27.583Z,21.80
2019-04-21T08:56:52.969Z,23.55
2019-04-21T08:59:50.670Z,21.82
2019-04-21T09:03:02.525Z,23.07
2019-04-21T09:05:11.594Z,24.72
2019-04-21T09:07:56.053Z,22.85
2019-04-21T09:10:16.894Z,21.82
2019-04-21T09:12:51.761Z,24.35
2019-04-21T09:15:30.031Z,23.75
2019-04-21T09:17:48.985Z,25.32
2019-04-21T09:20:40.197Z,26.27
2019-04-21T09:23:00.731Z,24.60
2019-04-21T09:25:40.714Z,24.63
2019-04-21T09:28:00.561Z,25.00
2019-04-21T09:30:17.607Z,23.77
2019-04-21T09:32:52.257Z,24.82
2019-04-21T09:35:21.903Z,25.20
2019-04-21T09:37:58.861Z,25.75
2019-04-21T09:40:31.554Z,24.95
2019-04-21T09:43:02.629Z,25.27
2019-04-21T09:45:28.637Z,24.35
2019-04-21T09:48:06.166Z,26.52
2019-04-21T09:50:34.507Z,25.72
2019-04-21T09:53:14.614Z,26.35
2019-04-21T09:55:43.966Z,25.57
2019-04-21T09:58:18.122Z,26.12
2019-04-21T10:00:50.991Z,25.27
2019-04-21T10:03:15.718Z,23.27
2019-04-21T10:05:45.232Z,25.15
2019-04-21T10:08:16.649Z,24.18
2019-04-21T10:10:47.370Z,25.05
2019-04-21T10:13:17.794Z,25.25
2019-04-21T10:15:54.553Z,25.52
2019-04-21T10:18:25.174Z,25.48
2019-04-21T10:20:56.955Z,25.35
2019-04-21T10:23:27.526Z,25.08
2019-04-21T10:25:58.723Z,26.42
2019-04-21T10:28:29.104Z,23.62
2019-04-21T10:31:00.674Z,26.52
2019-04-21T10:33:32.502Z,23.27
2019-04-21T10:36:04.585Z,24.45
2019-04-21T10:38:40.813Z,24.90
2019-04-21T10:41:07.686Z,22.22
2019-04-21T10:43:38.361Z,24.50
2019-04-21T10:46:08.837Z,25.43
2019-04-21T10:48:39.452Z,21.85
2019-04-21T10:51:10.761Z,26.27
2019-04-21T10:53:42.843Z,28.00
2019-04-21T10:56:21.748Z,25.00
2019-04-21T10:58:47.226Z,26.23
2019-04-21T11:01:29.435Z,26.42
2019-04-21T11:04:23.543Z,26.37
2019-04-21T11:06:50.495Z,27.58
2019-04-21T11:09:22.051Z,27.80
2019-04-21T11:11:53.594Z,28.23
2019-04-21T11:14:25.361Z,29.35
2019-04-21T11:16:56.572Z,30.12
2019-04-21T11:19:28.475Z,30.25
2019-04-21T11:21:59.169Z,29.45
2019-04-21T11:24:29.493Z,28.92
2019-04-21T11:27:00.342Z,30.70
2019-04-21T11:29:33.086Z,30.90
2019-04-21T11:32:03.595Z,30.77
2019-04-21T11:34:33.996Z,29.18
2019-04-21T11:37:06.026Z,29.45
2019-04-21T11:39:46.265Z,28.23
2019-04-21T11:42:17.730Z,28.90
2019-04-21T11:44:49.439Z,30.62
2019-04-21T11:47:28.409Z,28.62
2019-04-21T11:49:59.065Z,31.02
2019-04-21T11:52:29.549Z,27.40
2019-04-21T11:55:00.553Z,27.58
2019-04-21T11:57:36.723Z,32.25
2019-04-21T12:00:03.950Z,29.02
2019-04-21T12:02:35.301Z,30.45
2019-04-21T12:05:07.569Z,27.67
2019-04-21T12:07:38.044Z,26.57
2019-04-21T12:10:09.234Z,24.92
2019-04-21T12:12:41.252Z,26.52
2019-04-21T12:15:14.075Z,25.27
2019-04-21T12:17:44.218Z,25.85
2019-04-21T12:20:14.811Z,23.20
2019-04-21T12:22:45.434Z,24.95
2019-04-21T12:25:17.076Z,26.55
2019-04-21T12:27:47.869Z,24.60
2019-04-21T12:30:19.886Z,21.60
2019-04-21T12:33:16.159Z,23.80
2019-04-21T12:35:48.172Z,22.70
2019-04-21T12:38:30.209Z,20.80
2019-04-21T12:40:51.043Z,19.55
2019-04-21T12:43:21.405Z,18.62
2019-04-21T12:45:51.913Z,19.05
2019-04-21T12:48:22.347Z,17.12
2019-04-21T12:50:54.112Z,18.52
2019-04-21T12:53:25.556Z,18.73
2019-04-21T12:55:57.775Z,17.90
2019-04-21T12:58:29.092Z,23.25
2019-04-21T13:01:00.925Z,22.10
2019-04-21T13:03:32.183Z,23.47
2019-04-21T13:06:03.516Z,22.85
2019-04-21T13:08:49.084Z,21.75
2019-04-21T13:11:08.198Z,21.57
2019-04-21T13:13:39.922Z,18.55
2019-04-21T13:16:11.600Z,19.00
2019-04-21T13:18:42.485Z,16.27
2019-04-21T13:21:14.028Z,18.30
2019-04-21T13:23:45.152Z,17.00
2019-04-21T13:26:27.205Z,18.52
2019-04-21T13:28:48.056Z,19.17
2019-04-21T13:31:18.501Z,19.17
2019-04-21T13:33:50.121Z,18.00
2019-04-21T13:36:21.340Z,18.15
2019-04-21T13:39:45.841Z,17.98
2019-04-21T13:42:02.884Z,17.80
2019-04-21T13:44:23.298Z,15.50
2019-04-21T13:46:54.582Z,8.35
2019-04-21T13:49:25.384Z,7.60
2019-04-21T13:51:56.110Z,6.55
2019-04-21T13:54:27.452Z,5.55
2019-04-21T13:56:58.649Z,5.50
2019-04-21T13:59:29.307Z,3.67
2019-04-21T14:02:00.489Z,6.83
2019-04-21T14:04:31.481Z,7.20
2019-04-21T14:07:02.493Z,10.25
2019-04-21T14:09:43.121Z,8.93
2019-04-21T14:12:05.431Z,8.85
2019-04-21T14:14:36.609Z,11.25
2019-04-21T14:17:07.142Z,12.05
2019-04-21T14:19:37.586Z,11.30
2019-04-21T14:22:11.622Z,10.40
2019-04-21T14:24:41.731Z,10.70
2019-04-21T14:27:12.253Z,10.43
2019-04-21T14:29:43.828Z,9.18
2019-04-21T14:32:16.023Z,9.13
2019-04-21T14:34:50.206Z,8.08
2019-04-21T14:37:20.453Z,6.92
2019-04-21T14:39:59.632Z,8.65
2019-04-21T14:42:24.268Z,8.60
2019-04-21T14:44:54.882Z,7.62
2019-04-21T14:47:44.183Z,9.75
2019-04-21T14:50:32.705Z,9.60
2019-04-21T14:53:34.134Z,10.05
2019-04-21T14:56:04.594Z,9.03
2019-04-21T14:58:35.108Z,9.30
2019-04-21T15:01:08.310Z,9.73
2019-04-21T15:03:39.575Z,7.90
2019-04-21T15:06:11.575Z,7.17
2019-04-21T15:08:42.919Z,7.45
2019-04-21T15:11:13.972Z,7.55
2019-04-21T15:13:45.930Z,8.93
2019-04-21T15:16:16.593Z,8.95
2019-04-21T15:18:46.970Z,8.98
2019-04-21T15:21:17.580Z,9.03
2019-04-21T15:23:48.438Z,9.53
2019-04-21T15:26:20.057Z,8.93
2019-04-21T15:28:51.065Z,9.03
2019-04-21T15:31:28.798Z,9.23
2019-04-21T15:33:54.929Z,9.20
2019-04-21T15:36:25.391Z,9.73
2019-04-21T15:38:56.149Z,9.20
2019-04-21T15:41:26.935Z,9.05
2019-04-21T15:43:59.699Z,8.45
2019-04-21T15:46:32.190Z,9.60
2019-04-21T15:49:02.780Z,9.23
2019-04-21T15:51:33.741Z,7.75
2019-04-21T15:54:04.947Z,8.65
2019-04-21T15:56:46.964Z,8.43
2019-04-21T15:59:40.187Z,8.63
2019-04-21T16:02:28.647Z,7.55
2019-04-21T16:04:59.064Z,7.53
2019-04-21T16:07:29.872Z,8.03
2019-04-21T16:10:01.957Z,8.98
2019-04-21T16:12:33.820Z,8.43
2019-04-21T16:15:05.168Z,8.28
2019-04-21T16:17:35.568Z,8.83
2019-04-21T16:20:08.004Z,8.40
2019-04-21T16:22:38.919Z,9.25
2019-04-21T16:25:10.814Z,8.43
2019-04-21T16:27:41.477Z,7.67
2019-04-21T16:30:12.925Z,9.08
2019-04-21T16:32:43.999Z,9.48
2019-04-21T16:35:16.445Z,8.53
2019-04-21T16:37:47.741Z,8.85
2019-04-21T16:40:19.317Z,8.70
2019-04-21T16:42:50.129Z,7.50
2019-04-21T16:45:21.437Z,7.45
2019-04-21T16:47:53.648Z,7.90
2019-04-21T16:50:25.716Z,7.50
2019-04-21T16:53:01.746Z,6.72
2019-04-21T16:55:41.369Z,6.12
2019-04-21T16:58:30.785Z,6.25
2019-04-21T17:01:10.989Z,6.03
2019-04-21T17:03:37.741Z,7.85
2019-04-21T17:06:09.050Z,7.12
2019-04-21T17:08:40.919Z,6.83
2019-04-21T17:11:18.797Z,7.30
2019-04-21T17:13:43.662Z,7.55
2019-04-21T17:16:44.699Z,6.83
2019-04-21T17:18:57.428Z,6.67
2019-04-21T17:21:19.401Z,7.03
2019-04-21T17:23:50.477Z,7.47
2019-04-21T17:26:21.432Z,7.12
2019-04-21T17:28:54.211Z,6.87
2019-04-21T17:31:26.527Z,7.05
2019-04-21T17:34:01.951Z,6.45
2019-04-21T17:36:29.568Z,6.78
2019-04-21T17:39:00.223Z,7.45
2019-04-21T17:41:36.410Z,7.08
2019-04-21T17:44:02.720Z,6.95
2019-04-21T17:46:42.107Z,6.72
2019-04-21T17:49:05.410Z,21.00
2019-04-21T17:52:09.790Z,20.62
2019-04-21T17:54:48.502Z,22.10
2019-04-21T17:57:36.271Z,24.65
2019-04-21T18:00:25.866Z,27.55
2019-04-21T18:02:43.161Z,29.70
2019-04-21T18:05:15.212Z,27.22
2019-04-21T18:07:45.033Z,28.05
2019-04-21T18:10:11.530Z,27.30
2019-04-21T18:12:40.073Z,26.70
2019-04-21T18:15:18.040Z,28.02
2019-04-21T18:17:34.236Z,27.75
2019-04-21T18:20:06.081Z,27.07
2019-04-21T18:23:18.629Z,25.75
2019-04-21T18:25:50.438Z,26.70
2019-04-21T18:28:12.550Z,26.73
2019-04-21T18:30:56.280Z,26.12
2019-04-21T18:33:32.017Z,26.60
2019-04-21T18:36:22.299Z,27.87
2019-04-21T18:39:10.312Z,26.48
2019-04-21T18:41:32.248Z,27.93
2019-04-21T18:47:13.888Z,25.12
2019-04-21T18:49:43.722Z,27.00
2019-04-21T18:52:45.332Z,27.58
2019-04-21T18:55:16.636Z,26.17
2019-04-21T18:57:42.433Z,27.32
2019-04-21T19:00:18.222Z,27.62
2019-04-21T19:02:47.705Z,26.80
2019-04-21T19:05:19.186Z,27.50
2019-04-21T19:08:06.985Z,25.43
2019-04-21T19:13:29.138Z,25.65
2019-04-21T19:15:41.361Z,26.62
2019-04-21T19:20:44.855Z,25.80
2019-04-21T19:23:21.461Z,26.93
2019-04-21T19:25:58.611Z,27.42
2019-04-21T19:28:16.399Z,25.75
2019-04-21T19:30:56.458Z,26.97
2019-04-21T19:33:18.721Z,26.85
2019-04-21T19:35:39.389Z,27.85
2019-04-21T19:38:13.683Z,26.60
2019-04-21T19:40:56.331Z,26.65
2019-04-21T19:43:35.880Z,25.05
2019-04-21T19:46:04.339Z,26.10
2019-04-21T19:48:46.921Z,26.00
2019-04-21T19:51:10.596Z,25.20
2019-04-21T19:53:37.177Z,24.02
2019-04-21T19:55:56.100Z,26.82
2019-04-21T19:58:33.011Z,26.17
2019-04-21T20:00:59.767Z,26.42
2019-04-21T20:03:30.647Z,26.73
2019-04-21T20:06:12.751Z,25.52
2019-04-21T20:08:46.974Z,26.50
2019-04-21T20:11:23.854Z,27.90
2019-04-21T20:14:18.897Z,24.37
2019-04-21T20:16:33.888Z,27.17
2019-04-21T20:18:48.093Z,25.75
2019-04-21T20:21:14.354Z,26.17
2019-04-21T20:23:46.616Z,26.52
2019-04-21T20:26:17.578Z,25.77
2019-04-21T20:28:59.282Z,25.97
2019-04-21T20:31:37.357Z,24.75
2019-04-21T20:34:14.054Z,24.45
2019-04-21T20:36:51.820Z,26.00
2019-04-21T20:39:07.251Z,24.82
2019-04-21T20:41:41.000Z,24.72
2019-04-21T20:44:20.863Z,23.80
2019-04-21T20:46:50.320Z,27.13
2019-04-21T20:49:19.277Z,26.73
2019-04-21T20:52:01.623Z,26.25
2019-04-21T20:54:30.296Z,25.27
2019-04-21T20:57:01.570Z,24.57
2019-04-21T20:59:28.645Z,23.45
2019-04-21T21:02:05.685Z,25.02
2019-04-21T21:04:29.604Z,24.50
2019-04-21T21:07:16.176Z,24.32
2019-04-21T21:09:41.450Z,25.25
2019-04-21T21:12:24.700Z,25.68
2019-04-21T21:14:42.590Z,25.62
2019-04-21T21:17:34.447Z,26.10
2019-04-21T21:19:53.655Z,23.70
2019-04-21T21:22:14.409Z,24.55
2019-04-21T21:24:52.013Z,23.98
2019-04-21T21:27:19.170Z,24.57
2019-04-21T21:29:56.564Z,26.37
2019-04-21T21:32:40.025Z,26.40
2019-04-21T21:35:03.788Z,25.10
2019-04-21T21:37:36.897Z,26.80
2019-04-21T21:40:11.180Z,22.75
2019-04-21T21:42:27.618Z,26.17
2019-04-21T21:44:58.641Z,24.67
2019-04-21T21:47:46.268Z,25.35
2019-04-21T21:50:08.868Z,26.40
2019-04-21T21:52:42.612Z,26.20
2019-04-21T21:55:01.591Z,25.75
2019-04-21T21:57:34.138Z,26.73
2019-04-21T22:00:10.753Z,27.13
2019-04-21T22:02:44.226Z,26.42
2019-04-21T22:05:15.068Z,28.15
2019-04-21T22:07:42.509Z,26.75
2019-04-21T22:10:13.178Z,25.72
2019-04-21T22:12:53.903Z,26.97
2019-04-21T22:15:22.210Z,25.68
2019-04-21T22:18:07.328Z,24.95
2019-04-21T22:20:37.796Z,23.40
2019-04-21T22:22:59.423Z,23.35
2019-04-21T22:25:29.833Z,25.77
2019-04-21T22:27:57.935Z,25.08
2019-04-21T22:30:36.580Z,24.20
2019-04-21T22:33:06.936Z,24.37
2019-04-21T22:35:41.813Z,24.25
2019-04-21T22:38:20.807Z,24.50
2019-04-21T22:40:50.470Z,23.77
2019-04-21T22:43:19.717Z,23.42
2019-04-21T22:45:41.340Z,23.98
2019-04-21T22:48:16.608Z,24.32
2019-04-21T22:50:44.498Z,25.17
2019-04-21T22:53:16.152Z,23.62
2019-04-21T22:55:49.562Z,26.05
2019-04-21T22:58:28.272Z,26.02
2019-04-21T23:00:56.431Z,26.87
2019-04-21T23:03:25.242Z,26.00
2019-04-21T23:05:55.910Z,27.05
2019-04-21T23:08:32.991Z,26.50
2019-04-21T23:11:03.491Z,26.65
2019-04-21T23:13:31.289Z,26.97
2019-04-21T23:16:04.832Z,25.77
2019-04-21T23:18:46.115Z,24.60
2019-04-21T23:21:21.164Z,24.72
2019-04-21T23:23:59.550Z,25.02
2019-04-21T23:26:25.770Z,25.70
2019-04-21T23:29:01.920Z,27.02
2019-04-21T23:31:34.220Z,26.15
2019-04-21T23:33:48.430Z,26.07
2019-04-21T23:36:24.142Z,25.32
2019-04-21T23:38:53.260Z,25.97
2019-04-21T23:41:27.279Z,26.37
2019-04-21T23:43:59.171Z,25.57
2019-04-21T23:46:31.930Z,25.75
2019-04-21T23:49:16.069Z,26.40
2019-04-21T23:51:43.520Z,27.65
2019-04-21T23:54:05.037Z,24.87
2019-04-21T23:56:41.958Z,24.37
2019-04-21T23:59:11.580Z,26.17
